Avalon, Texas
Current Conditions -  °F | °C
As of 11:15 AM on Saturday 20 Dec 2014 (Local Time) from KJWY Reporting Station
Haze Haze  
Wind Chill: 44°   Ceiling: 500
Heat Index: 46°   Visibility: 3mi
Dew Point: 46°   Wind: 5mph
Humidity: 99%   Direction: 40°NE
Pressure: 30.27"   Gusts: NA
Location:  32.21°N, 96.79°W
Report Text: KJWY 201715Z AUTO 04004KT 3SM BR OVC005 08/08 A3027 RMK AO2 T00780077
Loading
Personal Weather Stations






























Interactive Weather Map New forecast layout! Learn more

10-Day Weather Forecast

Advertisements
Track Severe Weather on mobile